LFOPLFQA

Guest
Details From LFOP - Rouen Vallee de la Seine
To LFQA - Reims Prunay
Flight Number -
Tags generated
Created
Modified
Stats Distance 117 nm / 217 km
Max Altitude 6,600 ft / 2,012 m
Waypoints 3
Social Downloads 0
Likes 0
Share VATSIM

Download

Looking for another format? Having issues loading an existing format? Contact us
Advertisement - Login to hide

Notes

Basic altitude profile: - Ascent Rate: 2500ft/min - Ascent Speed: 250kts - Cruise Altitude: 35000ft - Cruise Speed: 420kts - Descent Rate: 1500ft/min - Descent Speed: 250kts Options: - Use NATs: yes - Use PACOTS: yes - Use low airways: yes - Use high airways: no

Route

LFOP VELER LFQA

ID Type Via Altitude Latitude Longitude Leg Dist Tot Dist Heading (true) Name
O LFOP APT - 0 ft / 0 m 49.38521˚ 1.17619˚ - 0 nm - Rouen Vallee de la Seine
VELER FIX - 6,600 ft / 2,012 m 49.24961˚ 3.36867˚ 86 nm 86 nm 95° / 96° -
O LFQA APT - 0 ft / 0 m 49.20882˚ 4.15705˚ 31 nm 117 nm 94° / 95° Reims Prunay

Altitude Profile

Advertisement - Login to hide

LFOP

Details ICAO LFOP (URO)
Name Rouen Vallee de la Seine
Region France
Timezone Europe/Paris (UTC+2.0)
Stats Elevation 512 ft / 156 m (AMSL)
Location 49.385211° 1.176192°
Runways 1
Magnetic Variation 0.245° E

METAR

LFOP 261530Z AUTO 13013KT CAVOK 27/18 Q1014 TEMPO VRB20G35KT 1200 TSRAGR BKN040CB

Decode

TAF

TAF AMD LFOP 261238Z 2612/2712 12015KT CAVOK TEMPO 2615/2624 3000 SHRA BKN030CB PROB30 TEMPO 2615/2624 VRB20G35KT 1200 TSRAGR BKN040CB

Decode

Departure Runways

ID Width Length Bearing (true) Bearing (mag) Surface Threshold Offset Overrun Length
04 148 ft / 45 m 5,577 ft / 1,700 m 41.28° 41.04° Asphalt 0 ft / 0 m 0 ft / 0 m
22 148 ft / 45 m 5,577 ft / 1,700 m 221.29° 221.05° Asphalt 0 ft / 0 m 0 ft / 0 m

LFQA

Details ICAO LFQA
Name Reims Prunay
Region France
Timezone Europe/Paris (UTC+2.0)
Stats Elevation 313 ft / 95 m (AMSL)
Location 49.208822° 4.157050°
Runways 1
Magnetic Variation 1.167° E

METAR

LFQA 261530Z AUTO 13008KT CAVOK 26/16 Q1016

Decode

TAF

Not found

Destination Runways

ID Width Length Bearing (true) Bearing (mag) Surface Threshold Offset Overrun Length
07 98 ft / 30 m 3,770 ft / 1,149 m 66.27° 65.10° Asphalt 640 ft / 195 m 0 ft / 0 m
25 98 ft / 30 m 3,770 ft / 1,149 m 246.29° 245.12° Asphalt 1,066 ft / 325 m 0 ft / 0 m

Popular Alternatives